sensor_id;sensor_type;location;lat;lon;timestamp;P1;durP1;ratioP1;P2;durP2;ratioP2
50880;SDS011;36858;47.832;-3.800;2023-04-22T06:18:24;8.47;;;7.57;;
50880;SDS011;36858;47.832;-3.800;2023-04-22T06:20:53;9.17;;;7.63;;
50880;SDS011;36858;47.832;-3.800;2023-04-22T06:23:20;8.57;;;7.60;;
50880;SDS011;36858;47.832;-3.800;2023-04-22T06:25:46;9.70;;;7.80;;
50880;SDS011;36858;47.832;-3.800;2023-04-22T06:28:14;10.77;;;7.93;;
50880;SDS011;36858;47.832;-3.800;2023-04-22T06:30:40;9.50;;;7.57;;
50880;SDS011;36858;47.832;-3.800;2023-04-22T06:33:07;8.80;;;7.33;;
50880;SDS011;36858;47.832;-3.800;2023-04-22T06:35:34;9.07;;;7.03;;
50880;SDS011;36858;47.832;-3.800;2023-04-22T06:38:01;10.70;;;8.13;;
50880;SDS011;36858;47.832;-3.800;2023-04-22T06:40:28;10.23;;;8.27;;
50880;SDS011;36858;47.832;-3.800;2023-04-22T06:42:55;8.47;;;7.57;;
50880;SDS011;36858;47.832;-3.800;2023-04-22T06:45:22;10.70;;;7.33;;
50880;SDS011;36858;47.832;-3.800;2023-04-22T06:47:50;12.53;;;8.87;;
50880;SDS011;36858;47.832;-3.800;2023-04-22T06:50:19;8.67;;;7.67;;
50880;SDS011;36858;47.832;-3.800;2023-04-22T06:52:45;8.73;;;7.83;;
50880;SDS011;36858;47.832;-3.800;2023-04-22T06:55:13;8.73;;;7.23;;
50880;SDS011;36858;47.832;-3.800;2023-04-22T06:57:39;8.67;;;7.57;;
50880;SDS011;36858;47.832;-3.800;2023-04-22T07:00:06;9.13;;;7.53;;
50880;SDS011;36858;47.832;-3.800;2023-04-22T07:02:37;7.77;;;6.97;;
50880;SDS011;36858;47.832;-3.800;2023-04-22T07:05:04;9.10;;;7.77;;
50880;SDS011;36858;47.832;-3.800;2023-04-22T07:07:31;8.57;;;7.57;;
50880;SDS011;36858;47.832;-3.800;2023-04-22T07:09:57;10.90;;;8.30;;
50880;SDS011;36858;47.832;-3.800;2023-04-22T07:12:24;9.60;;;8.00;;
50880;SDS011;36858;47.832;-3.800;2023-04-22T07:14:51;10.10;;;7.90;;
50880;SDS011;36858;47.832;-3.800;2023-04-22T07:17:18;9.87;;;7.90;;
50880;SDS011;36858;47.832;-3.800;2023-04-22T07:19:48;9.80;;;7.60;;
50880;SDS011;36858;47.832;-3.800;2023-04-22T07:22:15;9.00;;;8.10;;
50880;SDS011;36858;47.832;-3.800;2023-04-22T07:24:41;9.93;;;7.40;;
50880;SDS011;36858;47.832;-3.800;2023-04-22T07:27:08;8.83;;;6.80;;
50880;SDS011;36858;47.832;-3.800;2023-04-22T07:29:35;9.07;;;6.60;;
50880;SDS011;36858;47.832;-3.800;2023-04-22T07:32:03;7.43;;;6.70;;
50880;SDS011;36858;47.832;-3.800;2023-04-22T07:34:30;7.17;;;6.23;;
50880;SDS011;36858;47.832;-3.800;2023-04-22T07:36:57;6.70;;;5.60;;
50880;SDS011;36858;47.832;-3.800;2023-04-22T07:39:23;6.70;;;6.00;;
50880;SDS011;36858;47.832;-3.800;2023-04-22T07:41:50;7.23;;;6.27;;
50880;SDS011;36858;47.832;-3.800;2023-04-22T07:44:18;7.50;;;5.73;;
50880;SDS011;36858;47.832;-3.800;2023-04-22T07:46:47;6.97;;;5.87;;
50880;SDS011;36858;47.832;-3.800;2023-04-22T07:49:14;6.93;;;5.30;;
50880;SDS011;36858;47.832;-3.800;2023-04-22T07:51:45;5.30;;;4.80;;
50880;SDS011;36858;47.832;-3.800;2023-04-22T07:54:11;5.77;;;5.17;;
50880;SDS011;36858;47.832;-3.800;2023-04-22T07:56:38;5.93;;;4.50;;
50880;SDS011;36858;47.832;-3.800;2023-04-22T07:59:05;4.10;;;3.70;;
50880;SDS011;36858;47.832;-3.800;2023-04-22T08:01:32;5.90;;;3.90;;
50880;SDS011;36858;47.832;-3.800;2023-04-22T08:03:59;5.07;;;3.67;;
50880;SDS011;36858;47.832;-3.800;2023-04-22T08:06:26;3.83;;;3.00;;
50880;SDS011;36858;47.832;-3.800;2023-04-22T08:08:53;4.90;;;3.13;;
50880;SDS011;36858;47.832;-3.800;2023-04-22T08:11:20;3.87;;;2.70;;
50880;SDS011;36858;47.832;-3.800;2023-04-22T08:13:47;3.93;;;2.50;;
50880;SDS011;36858;47.832;-3.800;2023-04-22T08:16:14;3.87;;;2.50;;
50880;SDS011;36858;47.832;-3.800;2023-04-22T08:18:41;4.03;;;2.87;;
50880;SDS011;36858;47.832;-3.800;2023-04-22T08:21:08;5.93;;;2.77;;
50880;SDS011;36858;47.832;-3.800;2023-04-22T08:23:34;4.50;;;2.67;;
50880;SDS011;36858;47.832;-3.800;2023-04-22T08:26:02;2.40;;;1.93;;
50880;SDS011;36858;47.832;-3.800;2023-04-22T08:28:29;3.10;;;1.80;;
50880;SDS011;36858;47.832;-3.800;2023-04-22T08:30:56;4.03;;;2.23;;
50880;SDS011;36858;47.832;-3.800;2023-04-22T08:33:23;4.23;;;2.03;;
50880;SDS011;36858;47.832;-3.800;2023-04-22T08:35:52;3.43;;;2.47;;
50880;SDS011;36858;47.832;-3.800;2023-04-22T08:38:19;12.23;;;3.90;;
50880;SDS011;36858;47.832;-3.800;2023-04-22T08:40:46;4.00;;;2.17;;
50880;SDS011;36858;47.832;-3.800;2023-04-22T08:43:13;5.93;;;1.97;;
50880;SDS011;36858;47.832;-3.800;2023-04-22T08:45:40;7.70;;;2.10;;
50880;SDS011;36858;47.832;-3.800;2023-04-22T08:48:07;3.73;;;1.73;;
50880;SDS011;36858;47.832;-3.800;2023-04-22T08:50:36;5.27;;;1.80;;
50880;SDS011;36858;47.832;-3.800;2023-04-22T08:53:04;1.87;;;1.53;;
50880;SDS011;36858;47.832;-3.800;2023-04-22T08:55:31;4.70;;;1.80;;
50880;SDS011;36858;47.832;-3.800;2023-04-22T08:57:59;2.07;;;1.73;;
50880;SDS011;36858;47.832;-3.800;2023-04-22T09:00:27;4.70;;;1.80;;
50880;SDS011;36858;47.832;-3.800;2023-04-22T09:02:54;2.63;;;2.40;;
50880;SDS011;36858;47.832;-3.800;2023-04-22T09:05:22;3.07;;;1.60;;
50880;SDS011;36858;47.832;-3.800;2023-04-22T09:07:53;4.90;;;1.73;;
50880;SDS011;36858;47.832;-3.800;2023-04-22T09:10:20;4.30;;;1.90;;
50880;SDS011;36858;47.832;-3.800;2023-04-22T09:12:46;3.60;;;1.50;;
50880;SDS011;36858;47.832;-3.800;2023-04-22T09:15:14;5.43;;;2.30;;
50880;SDS011;36858;47.832;-3.800;2023-04-22T09:17:41;4.37;;;1.90;;
50880;SDS011;36858;47.832;-3.800;2023-04-22T09:20:09;6.90;;;1.63;;
50880;SDS011;36858;47.832;-3.800;2023-04-22T09:22:38;6.47;;;1.80;;
50880;SDS011;36858;47.832;-3.800;2023-04-22T09:27:46;3.83;;;1.50;;
50880;SDS011;36858;47.832;-3.800;2023-04-22T09:30:17;2.00;;;1.13;;
50880;SDS011;36858;47.832;-3.800;2023-04-22T09:32:52;5.37;;;1.70;;
50880;SDS011;36858;47.832;-3.800;2023-04-22T09:35:27;7.33;;;2.63;;
50880;SDS011;36858;47.832;-3.800;2023-04-22T09:38:09;6.50;;;1.70;;
50880;SDS011;36858;47.832;-3.800;2023-04-22T09:40:37;6.30;;;1.27;;
50880;SDS011;36858;47.832;-3.800;2023-04-22T09:43:08;6.17;;;1.47;;
50880;SDS011;36858;47.832;-3.800;2023-04-22T09:45:39;6.97;;;1.83;;
50880;SDS011;36858;47.832;-3.800;2023-04-22T09:48:08;4.23;;;2.17;;
50880;SDS011;36858;47.832;-3.800;2023-04-22T09:50:37;6.57;;;1.90;;
50880;SDS011;36858;47.832;-3.800;2023-04-22T09:53:08;3.70;;;1.70;;
50880;SDS011;36858;47.832;-3.800;2023-04-22T09:55:37;4.60;;;1.50;;
50880;SDS011;36858;47.832;-3.800;2023-04-22T09:58:08;5.53;;;1.40;;
50880;SDS011;36858;47.832;-3.800;2023-04-22T10:00:40;8.17;;;2.00;;
50880;SDS011;36858;47.832;-3.800;2023-04-22T10:03:18;4.87;;;1.80;;
50880;SDS011;36858;47.832;-3.800;2023-04-22T10:05:45;11.07;;;2.00;;
50880;SDS011;36858;47.832;-3.800;2023-04-22T10:08:13;8.90;;;1.93;;
50880;SDS011;36858;47.832;-3.800;2023-04-22T10:10:41;5.53;;;1.80;;
50880;SDS011;36858;47.832;-3.800;2023-04-22T10:13:08;9.97;;;1.67;;
50880;SDS011;36858;47.832;-3.800;2023-04-22T10:15:39;8.87;;;2.10;;
50880;SDS011;36858;47.832;-3.800;2023-04-22T10:18:11;10.80;;;2.60;;
50880;SDS011;36858;47.832;-3.800;2023-04-22T10:20:40;9.73;;;3.23;;
50880;SDS011;36858;47.832;-3.800;2023-04-22T10:23:14;4.13;;;1.60;;
50880;SDS011;36858;47.832;-3.800;2023-04-22T10:25:48;11.53;;;1.67;;
50880;SDS011;36858;47.832;-3.800;2023-04-22T10:28:16;10.63;;;2.03;;
50880;SDS011;36858;47.832;-3.800;2023-04-22T10:30:43;9.67;;;1.70;;
50880;SDS011;36858;47.832;-3.800;2023-04-22T10:38:34;8.90;;;1.93;;
50880;SDS011;36858;47.832;-3.800;2023-04-22T10:41:01;9.53;;;2.47;;
50880;SDS011;36858;47.832;-3.800;2023-04-22T10:43:44;9.67;;;1.97;;
50880;SDS011;36858;47.832;-3.800;2023-04-22T10:48:58;4.33;;;1.57;;
50880;SDS011;36858;47.832;-3.800;2023-04-22T10:59:31;9.27;;;2.70;;
50880;SDS011;36858;47.832;-3.800;2023-04-22T11:02:05;9.00;;;1.93;;
50880;SDS011;36858;47.832;-3.800;2023-04-22T11:04:33;5.47;;;1.30;;
50880;SDS011;36858;47.832;-3.800;2023-04-22T11:09:49;9.07;;;1.63;;
50880;SDS011;36858;47.832;-3.800;2023-04-22T11:17:35;11.77;;;2.07;;
50880;SDS011;36858;47.832;-3.800;2023-04-22T11:20:03;10.30;;;2.60;;
50880;SDS011;36858;47.832;-3.800;2023-04-22T11:22:37;12.90;;;2.73;;
50880;SDS011;36858;47.832;-3.800;2023-04-22T11:25:05;12.10;;;2.00;;
50880;SDS011;36858;47.832;-3.800;2023-04-22T11:27:32;9.50;;;1.90;;
50880;SDS011;36858;47.832;-3.800;2023-04-22T11:30:00;8.63;;;1.80;;
50880;SDS011;36858;47.832;-3.800;2023-04-22T11:32:31;9.53;;;2.03;;
50880;SDS011;36858;47.832;-3.800;2023-04-22T11:35:01;10.87;;;2.70;;
50880;SDS011;36858;47.832;-3.800;2023-04-22T11:37:29;6.43;;;1.97;;
50880;SDS011;36858;47.832;-3.800;2023-04-22T11:39:59;7.10;;;1.67;;
50880;SDS011;36858;47.832;-3.800;2023-04-22T11:42:47;15.27;;;2.33;;
50880;SDS011;36858;47.832;-3.800;2023-04-22T11:45:14;7.53;;;1.67;;
50880;SDS011;36858;47.832;-3.800;2023-04-22T11:47:41;7.23;;;2.10;;
50880;SDS011;36858;47.832;-3.800;2023-04-22T11:50:12;8.20;;;1.93;;
50880;SDS011;36858;47.832;-3.800;2023-04-22T11:52:40;10.27;;;2.13;;
50880;SDS011;36858;47.832;-3.800;2023-04-22T11:55:13;7.57;;;2.23;;
50880;SDS011;36858;47.832;-3.800;2023-04-22T11:57:41;8.10;;;2.20;;
50880;SDS011;36858;47.832;-3.800;2023-04-22T12:00:12;10.53;;;2.97;;
50880;SDS011;36858;47.832;-3.800;2023-04-22T12:02:40;10.80;;;2.73;;
50880;SDS011;36858;47.832;-3.800;2023-04-22T12:05:10;13.87;;;2.13;;
50880;SDS011;36858;47.832;-3.800;2023-04-22T12:07:41;8.30;;;1.97;;
50880;SDS011;36858;47.832;-3.800;2023-04-22T12:10:09;10.07;;;1.80;;
50880;SDS011;36858;47.832;-3.800;2023-04-22T12:12:38;11.43;;;2.00;;
50880;SDS011;36858;47.832;-3.800;2023-04-22T12:15:05;10.27;;;2.20;;
50880;SDS011;36858;47.832;-3.800;2023-04-22T12:17:34;11.93;;;2.37;;
50880;SDS011;36858;47.832;-3.800;2023-04-22T12:20:01;10.17;;;2.17;;
50880;SDS011;36858;47.832;-3.800;2023-04-22T12:22:29;12.40;;;2.43;;
50880;SDS011;36858;47.832;-3.800;2023-04-22T12:24:59;11.90;;;2.10;;
50880;SDS011;36858;47.832;-3.800;2023-04-22T12:27:26;9.67;;;2.17;;
50880;SDS011;36858;47.832;-3.800;2023-04-22T12:29:54;10.30;;;2.63;;
50880;SDS011;36858;47.832;-3.800;2023-04-22T12:32:22;10.37;;;1.93;;
50880;SDS011;36858;47.832;-3.800;2023-04-22T12:34:50;14.27;;;2.10;;
50880;SDS011;36858;47.832;-3.800;2023-04-22T12:37:18;12.33;;;2.73;;
50880;SDS011;36858;47.832;-3.800;2023-04-22T12:39:45;7.00;;;1.83;;
50880;SDS011;36858;47.832;-3.800;2023-04-22T12:42:12;9.20;;;1.80;;
50880;SDS011;36858;47.832;-3.800;2023-04-22T12:44:39;11.10;;;2.20;;
50880;SDS011;36858;47.832;-3.800;2023-04-22T12:47:06;11.43;;;2.57;;
50880;SDS011;36858;47.832;-3.800;2023-04-22T12:49:35;13.70;;;1.87;;
50880;SDS011;36858;47.832;-3.800;2023-04-22T12:52:04;10.50;;;2.53;;
50880;SDS011;36858;47.832;-3.800;2023-04-22T12:54:31;11.23;;;1.87;;
50880;SDS011;36858;47.832;-3.800;2023-04-22T12:56:58;10.17;;;2.50;;
50880;SDS011;36858;47.832;-3.800;2023-04-22T12:59:25;6.33;;;1.87;;
50880;SDS011;36858;47.832;-3.800;2023-04-22T13:01:52;7.37;;;1.73;;
50880;SDS011;36858;47.832;-3.800;2023-04-22T13:04:20;9.30;;;2.30;;
50880;SDS011;36858;47.832;-3.800;2023-04-22T13:06:47;7.83;;;2.10;;
50880;SDS011;36858;47.832;-3.800;2023-04-22T13:09:22;11.53;;;2.80;;
50880;SDS011;36858;47.832;-3.800;2023-04-22T13:11:50;9.40;;;2.00;;
50880;SDS011;36858;47.832;-3.800;2023-04-22T13:14:17;13.60;;;1.90;;
50880;SDS011;36858;47.832;-3.800;2023-04-22T13:16:44;12.77;;;2.40;;
50880;SDS011;36858;47.832;-3.800;2023-04-22T13:19:11;11.10;;;2.43;;
50880;SDS011;36858;47.832;-3.800;2023-04-22T13:21:39;14.83;;;2.80;;
50880;SDS011;36858;47.832;-3.800;2023-04-22T13:24:06;19.10;;;3.10;;
50880;SDS011;36858;47.832;-3.800;2023-04-22T13:26:33;18.63;;;2.77;;
50880;SDS011;36858;47.832;-3.800;2023-04-22T13:29:01;14.80;;;2.47;;
50880;SDS011;36858;47.832;-3.800;2023-04-22T13:31:28;8.73;;;2.20;;
50880;SDS011;36858;47.832;-3.800;2023-04-22T13:33:55;10.20;;;2.53;;
50880;SDS011;36858;47.832;-3.800;2023-04-22T13:36:22;15.00;;;3.20;;
50880;SDS011;36858;47.832;-3.800;2023-04-22T13:38:49;15.53;;;4.10;;
50880;SDS011;36858;47.832;-3.800;2023-04-22T13:41:16;21.60;;;2.73;;
50880;SDS011;36858;47.832;-3.800;2023-04-22T13:43:43;15.87;;;2.93;;
50880;SDS011;36858;47.832;-3.800;2023-04-22T13:46:10;16.47;;;3.27;;
50880;SDS011;36858;47.832;-3.800;2023-04-22T13:48:37;15.90;;;3.10;;
50880;SDS011;36858;47.832;-3.800;2023-04-22T13:51:04;17.20;;;2.97;;
50880;SDS011;36858;47.832;-3.800;2023-04-22T13:53:31;16.30;;;2.80;;
50880;SDS011;36858;47.832;-3.800;2023-04-22T13:55:59;15.83;;;3.23;;
50880;SDS011;36858;47.832;-3.800;2023-04-22T13:58:26;10.70;;;2.60;;
50880;SDS011;36858;47.832;-3.800;2023-04-22T14:00:53;17.30;;;3.10;;
50880;SDS011;36858;47.832;-3.800;2023-04-22T14:03:20;16.73;;;3.63;;
50880;SDS011;36858;47.832;-3.800;2023-04-22T14:05:48;12.10;;;3.07;;
50880;SDS011;36858;47.832;-3.800;2023-04-22T14:08:15;16.67;;;3.63;;
50880;SDS011;36858;47.832;-3.800;2023-04-22T14:10:42;15.47;;;3.53;;
50880;SDS011;36858;47.832;-3.800;2023-04-22T14:13:09;20.03;;;4.03;;
50880;SDS011;36858;47.832;-3.800;2023-04-22T14:15:37;12.80;;;3.53;;
50880;SDS011;36858;47.832;-3.800;2023-04-22T14:18:04;15.03;;;3.33;;
50880;SDS011;36858;47.832;-3.800;2023-04-22T14:20:31;19.17;;;3.43;;
50880;SDS011;36858;47.832;-3.800;2023-04-22T14:22:57;19.10;;;3.73;;
50880;SDS011;36858;47.832;-3.800;2023-04-22T14:25:26;16.20;;;2.80;;
50880;SDS011;36858;47.832;-3.800;2023-04-22T14:27:53;14.67;;;4.03;;
50880;SDS011;36858;47.832;-3.800;2023-04-22T14:30:20;17.10;;;3.40;;
50880;SDS011;36858;47.832;-3.800;2023-04-22T14:32:47;18.13;;;3.40;;
50880;SDS011;36858;47.832;-3.800;2023-04-22T14:35:15;21.83;;;3.87;;
50880;SDS011;36858;47.832;-3.800;2023-04-22T14:37:43;21.50;;;4.43;;
50880;SDS011;36858;47.832;-3.800;2023-04-22T14:40:10;17.17;;;3.73;;
50880;SDS011;36858;47.832;-3.800;2023-04-22T14:42:37;14.20;;;3.27;;
50880;SDS011;36858;47.832;-3.800;2023-04-22T14:45:04;15.27;;;3.53;;
50880;SDS011;36858;47.832;-3.800;2023-04-22T14:47:32;17.07;;;3.40;;
50880;SDS011;36858;47.832;-3.800;2023-04-22T14:49:58;18.90;;;3.53;;
50880;SDS011;36858;47.832;-3.800;2023-04-22T14:52:25;19.20;;;3.73;;
50880;SDS011;36858;47.832;-3.800;2023-04-22T14:54:52;19.43;;;4.30;;
50880;SDS011;36858;47.832;-3.800;2023-04-22T14:57:19;16.17;;;3.53;;
50880;SDS011;36858;47.832;-3.800;2023-04-22T14:59:46;15.70;;;3.23;;
50880;SDS011;36858;47.832;-3.800;2023-04-22T15:02:13;15.07;;;3.60;;
50880;SDS011;36858;47.832;-3.800;2023-04-22T15:04:41;16.67;;;2.93;;
50880;SDS011;36858;47.832;-3.800;2023-04-22T15:07:09;16.77;;;4.27;;
50880;SDS011;36858;47.832;-3.800;2023-04-22T15:09:36;19.37;;;3.93;;
50880;SDS011;36858;47.832;-3.800;2023-04-22T15:12:03;15.43;;;3.20;;
50880;SDS011;36858;47.832;-3.800;2023-04-22T15:14:31;20.10;;;3.70;;
50880;SDS011;36858;47.832;-3.800;2023-04-22T15:17:02;17.80;;;3.90;;
50880;SDS011;36858;47.832;-3.800;2023-04-22T15:19:30;16.90;;;3.83;;
50880;SDS011;36858;47.832;-3.800;2023-04-22T15:21:57;22.53;;;4.27;;
50880;SDS011;36858;47.832;-3.800;2023-04-22T15:24:24;17.00;;;3.10;;
50880;SDS011;36858;47.832;-3.800;2023-04-22T15:26:51;12.90;;;3.60;;
50880;SDS011;36858;47.832;-3.800;2023-04-22T15:29:18;24.47;;;4.40;;
50880;SDS011;36858;47.832;-3.800;2023-04-22T15:31:46;15.20;;;3.07;;
50880;SDS011;36858;47.832;-3.800;2023-04-22T15:34:13;20.63;;;4.10;;
50880;SDS011;36858;47.832;-3.800;2023-04-22T15:36:40;19.80;;;3.47;;
50880;SDS011;36858;47.832;-3.800;2023-04-22T15:39:07;14.00;;;3.37;;
50880;SDS011;36858;47.832;-3.800;2023-04-22T15:41:36;18.27;;;3.40;;
50880;SDS011;36858;47.832;-3.800;2023-04-22T15:44:03;15.97;;;2.90;;
50880;SDS011;36858;47.832;-3.800;2023-04-22T15:46:33;18.93;;;3.73;;
50880;SDS011;36858;47.832;-3.800;2023-04-22T15:49:00;17.57;;;3.90;;
50880;SDS011;36858;47.832;-3.800;2023-04-22T15:51:27;17.17;;;3.90;;
50880;SDS011;36858;47.832;-3.800;2023-04-22T15:53:54;15.70;;;3.70;;
50880;SDS011;36858;47.832;-3.800;2023-04-22T15:56:25;23.83;;;4.00;;
50880;SDS011;36858;47.832;-3.800;2023-04-22T15:58:52;17.13;;;3.60;;
50880;SDS011;36858;47.832;-3.800;2023-04-22T16:01:18;23.50;;;4.43;;
50880;SDS011;36858;47.832;-3.800;2023-04-22T16:03:48;27.70;;;4.03;;
50880;SDS011;36858;47.832;-3.800;2023-04-22T16:06:16;17.17;;;4.00;;
50880;SDS011;36858;47.832;-3.800;2023-04-22T16:08:43;25.00;;;3.90;;
50880;SDS011;36858;47.832;-3.800;2023-04-22T16:11:12;21.93;;;4.37;;
50880;SDS011;36858;47.832;-3.800;2023-04-22T16:13:39;16.60;;;3.83;;
50880;SDS011;36858;47.832;-3.800;2023-04-22T16:16:07;19.47;;;3.80;;
50880;SDS011;36858;47.832;-3.800;2023-04-22T16:18:34;24.30;;;4.33;;
50880;SDS011;36858;47.832;-3.800;2023-04-22T16:21:02;23.93;;;4.43;;
50880;SDS011;36858;47.832;-3.800;2023-04-22T16:23:29;17.27;;;4.20;;
50880;SDS011;36858;47.832;-3.800;2023-04-22T16:25:56;21.13;;;4.90;;
50880;SDS011;36858;47.832;-3.800;2023-04-22T16:28:23;22.60;;;3.80;;
50880;SDS011;36858;47.832;-3.800;2023-04-22T16:30:50;18.00;;;4.10;;
50880;SDS011;36858;47.832;-3.800;2023-04-22T16:33:17;22.27;;;5.43;;
50880;SDS011;36858;47.832;-3.800;2023-04-22T16:35:44;16.60;;;4.03;;
50880;SDS011;36858;47.832;-3.800;2023-04-22T16:38:11;19.33;;;3.57;;
50880;SDS011;36858;47.832;-3.800;2023-04-22T16:40:38;20.23;;;3.43;;
50880;SDS011;36858;47.832;-3.800;2023-04-22T16:43:05;19.43;;;4.17;;
50880;SDS011;36858;47.832;-3.800;2023-04-22T16:45:32;20.37;;;3.53;;
50880;SDS011;36858;47.832;-3.800;2023-04-22T16:47:59;16.43;;;3.37;;
50880;SDS011;36858;47.832;-3.800;2023-04-22T16:50:26;16.23;;;3.33;;
50880;SDS011;36858;47.832;-3.800;2023-04-22T16:52:53;15.17;;;3.23;;
50880;SDS011;36858;47.832;-3.800;2023-04-22T16:55:20;11.30;;;3.27;;
50880;SDS011;36858;47.832;-3.800;2023-04-22T16:57:47;18.10;;;3.20;;
50880;SDS011;36858;47.832;-3.800;2023-04-22T17:00:16;13.13;;;3.27;;
50880;SDS011;36858;47.832;-3.800;2023-04-22T17:02:44;12.57;;;2.90;;
50880;SDS011;36858;47.832;-3.800;2023-04-22T17:05:11;21.23;;;3.60;;
50880;SDS011;36858;47.832;-3.800;2023-04-22T17:07:38;18.23;;;4.23;;
50880;SDS011;36858;47.832;-3.800;2023-04-22T17:10:05;17.70;;;4.60;;
50880;SDS011;36858;47.832;-3.800;2023-04-22T17:12:32;17.10;;;3.23;;
50880;SDS011;36858;47.832;-3.800;2023-04-22T17:14:59;15.80;;;3.97;;
50880;SDS011;36858;47.832;-3.800;2023-04-22T17:17:26;14.30;;;3.53;;
50880;SDS011;36858;47.832;-3.800;2023-04-22T17:19:53;12.00;;;3.30;;
50880;SDS011;36858;47.832;-3.800;2023-04-22T17:22:20;19.63;;;3.20;;
50880;SDS011;36858;47.832;-3.800;2023-04-22T17:24:50;18.23;;;3.93;;
50880;SDS011;36858;47.832;-3.800;2023-04-22T17:27:17;14.33;;;3.67;;
50880;SDS011;36858;47.832;-3.800;2023-04-22T17:29:44;13.70;;;3.17;;
50880;SDS011;36858;47.832;-3.800;2023-04-22T17:32:11;14.50;;;4.00;;
50880;SDS011;36858;47.832;-3.800;2023-04-22T17:34:38;16.00;;;4.33;;
50880;SDS011;36858;47.832;-3.800;2023-04-22T17:37:06;17.20;;;3.60;;
50880;SDS011;36858;47.832;-3.800;2023-04-22T17:39:33;17.30;;;4.03;;
50880;SDS011;36858;47.832;-3.800;2023-04-22T17:42:00;19.20;;;5.07;;
50880;SDS011;36858;47.832;-3.800;2023-04-22T17:44:27;17.37;;;3.33;;
50880;SDS011;36858;47.832;-3.800;2023-04-22T17:46:54;19.20;;;3.97;;
50880;SDS011;36858;47.832;-3.800;2023-04-22T17:49:21;14.97;;;3.00;;
50880;SDS011;36858;47.832;-3.800;2023-04-22T17:51:48;15.23;;;3.50;;
50880;SDS011;36858;47.832;-3.800;2023-04-22T17:54:15;15.53;;;4.20;;
50880;SDS011;36858;47.832;-3.800;2023-04-22T17:56:42;18.43;;;3.80;;
50880;SDS011;36858;47.832;-3.800;2023-04-22T17:59:09;19.90;;;4.20;;
50880;SDS011;36858;47.832;-3.800;2023-04-22T18:01:36;23.73;;;4.77;;
50880;SDS011;36858;47.832;-3.800;2023-04-22T18:04:04;16.93;;;4.60;;
50880;SDS011;36858;47.832;-3.800;2023-04-22T18:06:31;15.13;;;4.63;;
50880;SDS011;36858;47.832;-3.800;2023-04-22T18:08:58;19.60;;;3.80;;
50880;SDS011;36858;47.832;-3.800;2023-04-22T18:11:25;12.77;;;3.40;;
50880;SDS011;36858;47.832;-3.800;2023-04-22T18:13:53;18.20;;;3.60;;
50880;SDS011;36858;47.832;-3.800;2023-04-22T18:16:20;17.17;;;3.53;;
50880;SDS011;36858;47.832;-3.800;2023-04-22T18:18:47;11.70;;;3.20;;
50880;SDS011;36858;47.832;-3.800;2023-04-22T18:21:14;17.63;;;3.43;;
50880;SDS011;36858;47.832;-3.800;2023-04-22T18:23:41;18.40;;;3.97;;
50880;SDS011;36858;47.832;-3.800;2023-04-22T18:26:08;19.27;;;4.27;;
50880;SDS011;36858;47.832;-3.800;2023-04-22T18:28:37;18.57;;;4.30;;
50880;SDS011;36858;47.832;-3.800;2023-04-22T18:31:09;16.93;;;4.80;;
50880;SDS011;36858;47.832;-3.800;2023-04-22T18:33:35;18.70;;;4.73;;
50880;SDS011;36858;47.832;-3.800;2023-04-22T18:36:03;19.70;;;4.60;;
50880;SDS011;36858;47.832;-3.800;2023-04-22T18:38:30;16.80;;;4.03;;
50880;SDS011;36858;47.832;-3.800;2023-04-22T18:40:57;19.27;;;3.90;;
50880;SDS011;36858;47.832;-3.800;2023-04-22T18:43:24;18.53;;;4.53;;
50880;SDS011;36858;47.832;-3.800;2023-04-22T18:45:51;20.80;;;3.93;;
50880;SDS011;36858;47.832;-3.800;2023-04-22T18:48:18;22.43;;;4.30;;
50880;SDS011;36858;47.832;-3.800;2023-04-22T18:50:45;21.10;;;4.10;;
50880;SDS011;36858;47.832;-3.800;2023-04-22T18:53:12;21.63;;;4.13;;
50880;SDS011;36858;47.832;-3.800;2023-04-22T18:55:39;25.53;;;4.00;;
50880;SDS011;36858;47.832;-3.800;2023-04-22T18:58:07;21.20;;;4.67;;
50880;SDS011;36858;47.832;-3.800;2023-04-22T19:00:34;18.60;;;3.30;;
50880;SDS011;36858;47.832;-3.800;2023-04-22T19:03:01;22.77;;;4.80;;
50880;SDS011;36858;47.832;-3.800;2023-04-22T19:05:28;15.70;;;4.17;;
50880;SDS011;36858;47.832;-3.800;2023-04-22T19:07:55;23.77;;;5.07;;
50880;SDS011;36858;47.832;-3.800;2023-04-22T19:10:22;20.97;;;4.23;;
50880;SDS011;36858;47.832;-3.800;2023-04-22T19:12:50;12.73;;;2.80;;
50880;SDS011;36858;47.832;-3.800;2023-04-22T19:15:17;16.53;;;4.50;;
50880;SDS011;36858;47.832;-3.800;2023-04-22T19:17:46;16.00;;;3.17;;
50880;SDS011;36858;47.832;-3.800;2023-04-22T19:20:13;27.67;;;4.60;;
50880;SDS011;36858;47.832;-3.800;2023-04-22T19:22:40;15.47;;;4.53;;
50880;SDS011;36858;47.832;-3.800;2023-04-22T19:25:07;22.90;;;4.67;;
50880;SDS011;36858;47.832;-3.800;2023-04-22T19:27:34;17.00;;;4.53;;
50880;SDS011;36858;47.832;-3.800;2023-04-22T19:30:02;17.83;;;4.33;;
50880;SDS011;36858;47.832;-3.800;2023-04-22T19:32:30;19.53;;;5.20;;
50880;SDS011;36858;47.832;-3.800;2023-04-22T19:34:57;12.20;;;3.80;;
50880;SDS011;36858;47.832;-3.800;2023-04-22T19:37:25;26.80;;;5.13;;
50880;SDS011;36858;47.832;-3.800;2023-04-22T19:39:52;17.50;;;4.00;;
50880;SDS011;36858;47.832;-3.800;2023-04-22T19:42:19;19.70;;;4.70;;
50880;SDS011;36858;47.832;-3.800;2023-04-22T19:44:46;20.07;;;4.20;;
50880;SDS011;36858;47.832;-3.800;2023-04-22T19:47:14;18.23;;;3.80;;
50880;SDS011;36858;47.832;-3.800;2023-04-22T19:49:41;13.87;;;3.37;;
50880;SDS011;36858;47.832;-3.800;2023-04-22T19:52:09;19.97;;;4.47;;
50880;SDS011;36858;47.832;-3.800;2023-04-22T19:54:38;15.83;;;3.80;;
50880;SDS011;36858;47.832;-3.800;2023-04-22T19:57:06;18.23;;;3.93;;
